sensor_id;sensor_type;location;lat;lon;timestamp;P1;durP1;ratioP1;P2;durP2;ratioP2
43160;SDS011;40968;52.342;5.528;2024-03-06T00:02:26;90.60;;;33.13;;
43160;SDS011;40968;52.342;5.528;2024-03-06T00:04:52;81.95;;;33.08;;
43160;SDS011;40968;52.342;5.528;2024-03-06T00:07:19;108.35;;;38.20;;
43160;SDS011;40968;52.342;5.528;2024-03-06T00:09:46;111.65;;;37.17;;
43160;SDS011;40968;52.342;5.528;2024-03-06T00:12:12;108.82;;;37.38;;
43160;SDS011;40968;52.342;5.528;2024-03-06T00:14:40;114.55;;;38.58;;
43160;SDS011;40968;52.342;5.528;2024-03-06T00:17:07;96.70;;;34.53;;
43160;SDS011;40968;52.342;5.528;2024-03-06T00:19:34;112.32;;;39.00;;
43160;SDS011;40968;52.342;5.528;2024-03-06T00:22:01;124.40;;;41.25;;
43160;SDS011;40968;52.342;5.528;2024-03-06T00:24:28;117.63;;;41.33;;
43160;SDS011;40968;52.342;5.528;2024-03-06T00:26:55;85.82;;;30.15;;
43160;SDS011;40968;52.342;5.528;2024-03-06T00:29:21;99.22;;;37.92;;
43160;SDS011;40968;52.342;5.528;2024-03-06T00:31:49;105.78;;;37.88;;
43160;SDS011;40968;52.342;5.528;2024-03-06T00:34:16;101.43;;;36.80;;
43160;SDS011;40968;52.342;5.528;2024-03-06T00:36:42;115.18;;;37.90;;
43160;SDS011;40968;52.342;5.528;2024-03-06T00:39:09;110.53;;;38.25;;
43160;SDS011;40968;52.342;5.528;2024-03-06T00:41:36;106.53;;;38.78;;
43160;SDS011;40968;52.342;5.528;2024-03-06T00:44:03;95.47;;;33.20;;
43160;SDS011;40968;52.342;5.528;2024-03-06T00:46:30;95.45;;;34.92;;
43160;SDS011;40968;52.342;5.528;2024-03-06T00:48:58;104.30;;;35.05;;
43160;SDS011;40968;52.342;5.528;2024-03-06T00:51:25;91.05;;;34.33;;
43160;SDS011;40968;52.342;5.528;2024-03-06T00:53:51;100.53;;;36.55;;
43160;SDS011;40968;52.342;5.528;2024-03-06T00:56:18;95.28;;;34.40;;
43160;SDS011;40968;52.342;5.528;2024-03-06T00:58:45;100.97;;;36.08;;
43160;SDS011;40968;52.342;5.528;2024-03-06T01:01:12;98.38;;;35.10;;
43160;SDS011;40968;52.342;5.528;2024-03-06T01:03:39;105.43;;;38.00;;
43160;SDS011;40968;52.342;5.528;2024-03-06T01:06:06;100.85;;;35.63;;
43160;SDS011;40968;52.342;5.528;2024-03-06T01:08:33;108.20;;;37.70;;
43160;SDS011;40968;52.342;5.528;2024-03-06T01:11:01;98.88;;;34.80;;
43160;SDS011;40968;52.342;5.528;2024-03-06T01:13:28;99.47;;;35.20;;
43160;SDS011;40968;52.342;5.528;2024-03-06T01:15:54;98.38;;;35.58;;
43160;SDS011;40968;52.342;5.528;2024-03-06T01:18:21;93.60;;;35.50;;
43160;SDS011;40968;52.342;5.528;2024-03-06T01:20:48;105.95;;;34.72;;
43160;SDS011;40968;52.342;5.528;2024-03-06T01:23:15;115.18;;;40.53;;
43160;SDS011;40968;52.342;5.528;2024-03-06T01:25:42;103.55;;;36.42;;
43160;SDS011;40968;52.342;5.528;2024-03-06T01:28:09;95.80;;;34.63;;
43160;SDS011;40968;52.342;5.528;2024-03-06T01:30:35;98.40;;;34.00;;
43160;SDS011;40968;52.342;5.528;2024-03-06T01:33:02;96.43;;;34.08;;
43160;SDS011;40968;52.342;5.528;2024-03-06T01:35:30;107.80;;;39.17;;
43160;SDS011;40968;52.342;5.528;2024-03-06T01:37:56;105.35;;;37.65;;
43160;SDS011;40968;52.342;5.528;2024-03-06T01:40:24;101.25;;;36.03;;
43160;SDS011;40968;52.342;5.528;2024-03-06T01:42:51;95.68;;;35.20;;
43160;SDS011;40968;52.342;5.528;2024-03-06T01:45:17;105.57;;;40.25;;
43160;SDS011;40968;52.342;5.528;2024-03-06T01:47:45;112.80;;;41.60;;
43160;SDS011;40968;52.342;5.528;2024-03-06T01:50:11;110.78;;;38.63;;
43160;SDS011;40968;52.342;5.528;2024-03-06T01:52:39;114.60;;;41.47;;
43160;SDS011;40968;52.342;5.528;2024-03-06T01:55:07;116.25;;;39.35;;
43160;SDS011;40968;52.342;5.528;2024-03-06T01:57:36;108.35;;;40.20;;
43160;SDS011;40968;52.342;5.528;2024-03-06T02:00:05;122.18;;;43.28;;
43160;SDS011;40968;52.342;5.528;2024-03-06T02:02:33;122.22;;;41.80;;
43160;SDS011;40968;52.342;5.528;2024-03-06T02:05:00;116.53;;;40.25;;
43160;SDS011;40968;52.342;5.528;2024-03-06T02:07:27;113.32;;;40.72;;
43160;SDS011;40968;52.342;5.528;2024-03-06T02:09:58;100.25;;;36.13;;
43160;SDS011;40968;52.342;5.528;2024-03-06T02:12:25;115.63;;;39.97;;
43160;SDS011;40968;52.342;5.528;2024-03-06T02:14:54;116.03;;;40.88;;
43160;SDS011;40968;52.342;5.528;2024-03-06T02:17:20;117.25;;;39.65;;
43160;SDS011;40968;52.342;5.528;2024-03-06T02:19:47;114.82;;;40.15;;
43160;SDS011;40968;52.342;5.528;2024-03-06T02:22:15;107.97;;;40.72;;
43160;SDS011;40968;52.342;5.528;2024-03-06T02:24:42;103.40;;;39.47;;
43160;SDS011;40968;52.342;5.528;2024-03-06T02:27:11;110.50;;;39.65;;
43160;SDS011;40968;52.342;5.528;2024-03-06T02:29:37;110.45;;;39.72;;
43160;SDS011;40968;52.342;5.528;2024-03-06T02:32:04;97.85;;;37.63;;
43160;SDS011;40968;52.342;5.528;2024-03-06T02:34:31;100.90;;;36.28;;
43160;SDS011;40968;52.342;5.528;2024-03-06T02:36:57;109.35;;;38.90;;
43160;SDS011;40968;52.342;5.528;2024-03-06T02:39:25;119.63;;;41.67;;
43160;SDS011;40968;52.342;5.528;2024-03-06T02:41:52;111.68;;;39.22;;
43160;SDS011;40968;52.342;5.528;2024-03-06T02:44:19;105.00;;;37.30;;
43160;SDS011;40968;52.342;5.528;2024-03-06T02:46:46;97.15;;;37.83;;
43160;SDS011;40968;52.342;5.528;2024-03-06T02:49:13;112.70;;;37.88;;
43160;SDS011;40968;52.342;5.528;2024-03-06T02:51:40;73.07;;;28.20;;
43160;SDS011;40968;52.342;5.528;2024-03-06T02:54:07;109.75;;;38.42;;
43160;SDS011;40968;52.342;5.528;2024-03-06T02:56:35;108.53;;;38.03;;
43160;SDS011;40968;52.342;5.528;2024-03-06T02:59:01;110.00;;;38.25;;
43160;SDS011;40968;52.342;5.528;2024-03-06T03:01:29;106.30;;;39.47;;
43160;SDS011;40968;52.342;5.528;2024-03-06T03:03:56;113.22;;;37.08;;
43160;SDS011;40968;52.342;5.528;2024-03-06T03:06:23;106.57;;;37.70;;
43160;SDS011;40968;52.342;5.528;2024-03-06T03:08:50;106.60;;;36.65;;
43160;SDS011;40968;52.342;5.528;2024-03-06T03:11:16;98.45;;;33.80;;
43160;SDS011;40968;52.342;5.528;2024-03-06T03:13:44;96.07;;;33.72;;
43160;SDS011;40968;52.342;5.528;2024-03-06T03:16:15;97.93;;;35.25;;
43160;SDS011;40968;52.342;5.528;2024-03-06T03:18:42;103.93;;;35.70;;
43160;SDS011;40968;52.342;5.528;2024-03-06T03:21:09;96.38;;;33.13;;
43160;SDS011;40968;52.342;5.528;2024-03-06T03:23:36;89.53;;;31.98;;
43160;SDS011;40968;52.342;5.528;2024-03-06T03:26:03;91.57;;;33.67;;
43160;SDS011;40968;52.342;5.528;2024-03-06T03:28:30;95.32;;;35.03;;
43160;SDS011;40968;52.342;5.528;2024-03-06T03:30:58;100.03;;;36.00;;
43160;SDS011;40968;52.342;5.528;2024-03-06T03:33:25;100.38;;;33.00;;
43160;SDS011;40968;52.342;5.528;2024-03-06T03:35:52;119.72;;;37.50;;
43160;SDS011;40968;52.342;5.528;2024-03-06T03:38:18;96.63;;;35.88;;
43160;SDS011;40968;52.342;5.528;2024-03-06T03:40:45;116.55;;;36.58;;
43160;SDS011;40968;52.342;5.528;2024-03-06T03:43:11;109.82;;;38.47;;
43160;SDS011;40968;52.342;5.528;2024-03-06T03:45:38;108.47;;;37.85;;
43160;SDS011;40968;52.342;5.528;2024-03-06T03:48:06;105.90;;;36.88;;
43160;SDS011;40968;52.342;5.528;2024-03-06T03:50:33;119.80;;;37.95;;
43160;SDS011;40968;52.342;5.528;2024-03-06T03:52:59;116.32;;;39.95;;
43160;SDS011;40968;52.342;5.528;2024-03-06T03:55:26;117.03;;;39.22;;
43160;SDS011;40968;52.342;5.528;2024-03-06T03:57:53;117.60;;;40.28;;
43160;SDS011;40968;52.342;5.528;2024-03-06T04:00:20;115.50;;;37.97;;
43160;SDS011;40968;52.342;5.528;2024-03-06T04:02:48;104.80;;;37.35;;
43160;SDS011;40968;52.342;5.528;2024-03-06T04:05:16;102.72;;;37.15;;
43160;SDS011;40968;52.342;5.528;2024-03-06T04:07:43;107.53;;;37.97;;
43160;SDS011;40968;52.342;5.528;2024-03-06T04:10:10;102.60;;;37.08;;
43160;SDS011;40968;52.342;5.528;2024-03-06T04:12:37;117.65;;;41.38;;
43160;SDS011;40968;52.342;5.528;2024-03-06T04:15:04;120.38;;;39.72;;
43160;SDS011;40968;52.342;5.528;2024-03-06T04:17:33;115.53;;;37.75;;
43160;SDS011;40968;52.342;5.528;2024-03-06T04:20:00;109.50;;;36.40;;
43160;SDS011;40968;52.342;5.528;2024-03-06T04:22:29;110.43;;;38.17;;
43160;SDS011;40968;52.342;5.528;2024-03-06T04:24:55;113.53;;;37.20;;
43160;SDS011;40968;52.342;5.528;2024-03-06T04:27:23;114.47;;;37.70;;
43160;SDS011;40968;52.342;5.528;2024-03-06T04:29:50;102.85;;;35.83;;
43160;SDS011;40968;52.342;5.528;2024-03-06T04:32:17;94.50;;;34.05;;
43160;SDS011;40968;52.342;5.528;2024-03-06T04:34:44;85.65;;;27.73;;
43160;SDS011;40968;52.342;5.528;2024-03-06T04:37:11;88.90;;;31.45;;
43160;SDS011;40968;52.342;5.528;2024-03-06T04:39:39;87.80;;;30.73;;
43160;SDS011;40968;52.342;5.528;2024-03-06T04:42:06;94.97;;;33.13;;
43160;SDS011;40968;52.342;5.528;2024-03-06T04:44:33;87.47;;;31.55;;
43160;SDS011;40968;52.342;5.528;2024-03-06T04:47:00;82.72;;;31.35;;
43160;SDS011;40968;52.342;5.528;2024-03-06T04:49:26;92.80;;;32.25;;
43160;SDS011;40968;52.342;5.528;2024-03-06T04:51:53;93.63;;;32.45;;
43160;SDS011;40968;52.342;5.528;2024-03-06T04:54:20;111.75;;;40.28;;
43160;SDS011;40968;52.342;5.528;2024-03-06T04:56:48;93.00;;;35.80;;
43160;SDS011;40968;52.342;5.528;2024-03-06T04:59:14;87.10;;;33.53;;
43160;SDS011;40968;52.342;5.528;2024-03-06T05:01:41;85.65;;;31.90;;
43160;SDS011;40968;52.342;5.528;2024-03-06T05:04:08;85.30;;;32.95;;
43160;SDS011;40968;52.342;5.528;2024-03-06T05:06:35;81.63;;;32.03;;
43160;SDS011;40968;52.342;5.528;2024-03-06T05:09:02;84.10;;;30.77;;
43160;SDS011;40968;52.342;5.528;2024-03-06T05:11:29;81.57;;;28.35;;
43160;SDS011;40968;52.342;5.528;2024-03-06T05:13:59;93.80;;;32.65;;
43160;SDS011;40968;52.342;5.528;2024-03-06T05:16:25;80.90;;;30.02;;
43160;SDS011;40968;52.342;5.528;2024-03-06T05:18:52;74.30;;;27.33;;
43160;SDS011;40968;52.342;5.528;2024-03-06T05:21:19;77.93;;;26.88;;
43160;SDS011;40968;52.342;5.528;2024-03-06T05:23:47;63.08;;;26.30;;
43160;SDS011;40968;52.342;5.528;2024-03-06T05:26:14;74.22;;;25.85;;
43160;SDS011;40968;52.342;5.528;2024-03-06T05:28:40;70.70;;;25.58;;
43160;SDS011;40968;52.342;5.528;2024-03-06T05:31:15;66.60;;;22.65;;
43160;SDS011;40968;52.342;5.528;2024-03-06T05:33:42;51.50;;;19.95;;
43160;SDS011;40968;52.342;5.528;2024-03-06T05:36:10;53.95;;;20.27;;
43160;SDS011;40968;52.342;5.528;2024-03-06T05:38:38;59.10;;;20.58;;
43160;SDS011;40968;52.342;5.528;2024-03-06T05:41:04;56.63;;;21.02;;
43160;SDS011;40968;52.342;5.528;2024-03-06T05:43:31;62.78;;;22.13;;
43160;SDS011;40968;52.342;5.528;2024-03-06T05:45:57;65.25;;;22.80;;
43160;SDS011;40968;52.342;5.528;2024-03-06T05:48:26;70.68;;;23.00;;
43160;SDS011;40968;52.342;5.528;2024-03-06T05:50:53;77.88;;;25.80;;
43160;SDS011;40968;52.342;5.528;2024-03-06T05:53:20;60.58;;;22.35;;
43160;SDS011;40968;52.342;5.528;2024-03-06T05:55:46;62.50;;;22.90;;
43160;SDS011;40968;52.342;5.528;2024-03-06T05:58:13;55.20;;;18.45;;
43160;SDS011;40968;52.342;5.528;2024-03-06T06:00:41;53.58;;;19.88;;
43160;SDS011;40968;52.342;5.528;2024-03-06T06:03:08;46.05;;;17.95;;
43160;SDS011;40968;52.342;5.528;2024-03-06T06:05:38;48.58;;;17.90;;
43160;SDS011;40968;52.342;5.528;2024-03-06T06:08:05;57.42;;;21.00;;
43160;SDS011;40968;52.342;5.528;2024-03-06T06:10:31;47.63;;;19.08;;
43160;SDS011;40968;52.342;5.528;2024-03-06T06:12:58;50.50;;;17.60;;
43160;SDS011;40968;52.342;5.528;2024-03-06T06:15:25;49.78;;;18.42;;
43160;SDS011;40968;52.342;5.528;2024-03-06T06:17:51;45.83;;;17.95;;
43160;SDS011;40968;52.342;5.528;2024-03-06T06:20:18;48.80;;;18.10;;
43160;SDS011;40968;52.342;5.528;2024-03-06T06:22:46;43.90;;;18.27;;
43160;SDS011;40968;52.342;5.528;2024-03-06T06:25:13;52.95;;;20.20;;
43160;SDS011;40968;52.342;5.528;2024-03-06T06:27:41;61.33;;;21.73;;
43160;SDS011;40968;52.342;5.528;2024-03-06T06:30:08;52.78;;;19.95;;
43160;SDS011;40968;52.342;5.528;2024-03-06T06:32:36;47.78;;;18.02;;
43160;SDS011;40968;52.342;5.528;2024-03-06T06:35:03;52.58;;;19.50;;
43160;SDS011;40968;52.342;5.528;2024-03-06T06:37:30;51.08;;;19.30;;
43160;SDS011;40968;52.342;5.528;2024-03-06T06:40:01;51.70;;;18.80;;
43160;SDS011;40968;52.342;5.528;2024-03-06T06:42:31;49.30;;;18.75;;
43160;SDS011;40968;52.342;5.528;2024-03-06T06:44:58;57.75;;;18.08;;
43160;SDS011;40968;52.342;5.528;2024-03-06T06:47:24;48.05;;;18.60;;
43160;SDS011;40968;52.342;5.528;2024-03-06T06:49:51;61.72;;;19.48;;
43160;SDS011;40968;52.342;5.528;2024-03-06T06:52:17;56.10;;;19.45;;
43160;SDS011;40968;52.342;5.528;2024-03-06T06:54:45;55.30;;;19.83;;
43160;SDS011;40968;52.342;5.528;2024-03-06T06:57:13;54.75;;;18.98;;
43160;SDS011;40968;52.342;5.528;2024-03-06T06:59:39;58.85;;;20.20;;
43160;SDS011;40968;52.342;5.528;2024-03-06T07:02:06;58.97;;;20.30;;
43160;SDS011;40968;52.342;5.528;2024-03-06T07:04:32;68.68;;;22.02;;
43160;SDS011;40968;52.342;5.528;2024-03-06T07:06:59;59.35;;;20.00;;
43160;SDS011;40968;52.342;5.528;2024-03-06T07:09:25;58.28;;;20.70;;
43160;SDS011;40968;52.342;5.528;2024-03-06T07:11:54;63.63;;;22.50;;
43160;SDS011;40968;52.342;5.528;2024-03-06T07:14:22;66.47;;;21.73;;
43160;SDS011;40968;52.342;5.528;2024-03-06T07:16:49;68.13;;;21.95;;
43160;SDS011;40968;52.342;5.528;2024-03-06T07:19:14;83.40;;;24.25;;
43160;SDS011;40968;52.342;5.528;2024-03-06T07:21:42;74.53;;;25.58;;
43160;SDS011;40968;52.342;5.528;2024-03-06T07:24:08;80.35;;;25.38;;
43160;SDS011;40968;52.342;5.528;2024-03-06T07:26:35;83.70;;;25.70;;
43160;SDS011;40968;52.342;5.528;2024-03-06T07:29:01;74.82;;;24.38;;
43160;SDS011;40968;52.342;5.528;2024-03-06T07:31:29;78.60;;;26.45;;
43160;SDS011;40968;52.342;5.528;2024-03-06T07:33:57;77.55;;;27.10;;
43160;SDS011;40968;52.342;5.528;2024-03-06T07:36:23;95.97;;;28.45;;
43160;SDS011;40968;52.342;5.528;2024-03-06T07:38:50;98.43;;;29.33;;
43160;SDS011;40968;52.342;5.528;2024-03-06T07:41:16;91.15;;;28.80;;
43160;SDS011;40968;52.342;5.528;2024-03-06T07:43:43;88.55;;;28.83;;
43160;SDS011;40968;52.342;5.528;2024-03-06T07:46:10;95.05;;;28.90;;
43160;SDS011;40968;52.342;5.528;2024-03-06T07:48:41;91.90;;;29.83;;
43160;SDS011;40968;52.342;5.528;2024-03-06T07:51:07;100.27;;;31.77;;
43160;SDS011;40968;52.342;5.528;2024-03-06T07:53:34;94.15;;;31.05;;
43160;SDS011;40968;52.342;5.528;2024-03-06T07:56:01;100.05;;;30.00;;
43160;SDS011;40968;52.342;5.528;2024-03-06T07:58:28;82.07;;;27.50;;
43160;SDS011;40968;52.342;5.528;2024-03-06T08:00:55;86.30;;;29.65;;
43160;SDS011;40968;52.342;5.528;2024-03-06T08:03:21;82.72;;;29.33;;
43160;SDS011;40968;52.342;5.528;2024-03-06T08:05:51;89.70;;;27.30;;
43160;SDS011;40968;52.342;5.528;2024-03-06T08:08:18;65.20;;;22.45;;
43160;SDS011;40968;52.342;5.528;2024-03-06T08:10:45;86.15;;;25.65;;
43160;SDS011;40968;52.342;5.528;2024-03-06T08:13:11;72.60;;;24.92;;
43160;SDS011;40968;52.342;5.528;2024-03-06T08:15:38;86.45;;;26.35;;
43160;SDS011;40968;52.342;5.528;2024-03-06T08:18:05;82.40;;;25.50;;
43160;SDS011;40968;52.342;5.528;2024-03-06T08:20:32;83.38;;;26.85;;
43160;SDS011;40968;52.342;5.528;2024-03-06T08:23:00;74.55;;;26.00;;
43160;SDS011;40968;52.342;5.528;2024-03-06T08:25:27;73.25;;;26.67;;
43160;SDS011;40968;52.342;5.528;2024-03-06T08:27:53;72.97;;;26.25;;
43160;SDS011;40968;52.342;5.528;2024-03-06T08:30:20;64.85;;;24.02;;
43160;SDS011;40968;52.342;5.528;2024-03-06T08:32:47;66.95;;;22.00;;
43160;SDS011;40968;52.342;5.528;2024-03-06T08:35:14;66.50;;;23.63;;
43160;SDS011;40968;52.342;5.528;2024-03-06T08:37:43;62.00;;;23.42;;
43160;SDS011;40968;52.342;5.528;2024-03-06T08:40:11;59.50;;;22.25;;
43160;SDS011;40968;52.342;5.528;2024-03-06T08:42:40;58.85;;;22.83;;
43160;SDS011;40968;52.342;5.528;2024-03-06T08:45:07;64.00;;;22.83;;
43160;SDS011;40968;52.342;5.528;2024-03-06T08:47:34;63.08;;;23.67;;
43160;SDS011;40968;52.342;5.528;2024-03-06T08:50:01;67.15;;;24.65;;
43160;SDS011;40968;52.342;5.528;2024-03-06T08:52:28;64.60;;;24.65;;
43160;SDS011;40968;52.342;5.528;2024-03-06T08:54:55;62.35;;;23.38;;
43160;SDS011;40968;52.342;5.528;2024-03-06T08:57:24;64.50;;;22.95;;
43160;SDS011;40968;52.342;5.528;2024-03-06T08:59:53;63.47;;;23.00;;
43160;SDS011;40968;52.342;5.528;2024-03-06T09:02:19;64.13;;;23.45;;
43160;SDS011;40968;52.342;5.528;2024-03-06T09:04:46;63.58;;;22.75;;
43160;SDS011;40968;52.342;5.528;2024-03-06T09:07:13;70.85;;;23.67;;
43160;SDS011;40968;52.342;5.528;2024-03-06T09:09:40;60.10;;;21.52;;
43160;SDS011;40968;52.342;5.528;2024-03-06T09:12:07;60.30;;;23.15;;
43160;SDS011;40968;52.342;5.528;2024-03-06T09:14:36;56.67;;;22.38;;
43160;SDS011;40968;52.342;5.528;2024-03-06T09:17:04;61.13;;;22.55;;
43160;SDS011;40968;52.342;5.528;2024-03-06T09:19:31;60.42;;;23.55;;
43160;SDS011;40968;52.342;5.528;2024-03-06T09:21:58;71.03;;;22.60;;
43160;SDS011;40968;52.342;5.528;2024-03-06T09:24:25;61.50;;;21.77;;
43160;SDS011;40968;52.342;5.528;2024-03-06T09:26:52;66.15;;;23.58;;
43160;SDS011;40968;52.342;5.528;2024-03-06T09:29:19;64.47;;;21.20;;
43160;SDS011;40968;52.342;5.528;2024-03-06T09:31:47;57.83;;;21.58;;
43160;SDS011;40968;52.342;5.528;2024-03-06T09:34:14;65.93;;;22.35;;
43160;SDS011;40968;52.342;5.528;2024-03-06T09:36:41;57.65;;;22.00;;
43160;SDS011;40968;52.342;5.528;2024-03-06T09:39:11;67.20;;;21.52;;
43160;SDS011;40968;52.342;5.528;2024-03-06T09:41:41;60.72;;;21.95;;
43160;SDS011;40968;52.342;5.528;2024-03-06T09:44:08;67.40;;;22.15;;
43160;SDS011;40968;52.342;5.528;2024-03-06T09:46:35;67.35;;;23.23;;
43160;SDS011;40968;52.342;5.528;2024-03-06T09:49:03;64.10;;;23.05;;
43160;SDS011;40968;52.342;5.528;2024-03-06T09:51:30;62.58;;;21.90;;
43160;SDS011;40968;52.342;5.528;2024-03-06T09:53:58;58.20;;;21.63;;
43160;SDS011;40968;52.342;5.528;2024-03-06T09:56:24;65.88;;;22.45;;
43160;SDS011;40968;52.342;5.528;2024-03-06T09:58:51;52.03;;;21.15;;
43160;SDS011;40968;52.342;5.528;2024-03-06T10:01:20;63.72;;;21.88;;
43160;SDS011;40968;52.342;5.528;2024-03-06T10:03:49;67.15;;;22.83;;
43160;SDS011;40968;52.342;5.528;2024-03-06T10:06:18;54.05;;;20.35;;
43160;SDS011;40968;52.342;5.528;2024-03-06T10:08:45;69.93;;;21.48;;
43160;SDS011;40968;52.342;5.528;2024-03-06T10:11:13;56.55;;;21.20;;
43160;SDS011;40968;52.342;5.528;2024-03-06T10:13:40;55.45;;;20.40;;
43160;SDS011;40968;52.342;5.528;2024-03-06T10:16:06;65.13;;;21.70;;
43160;SDS011;40968;52.342;5.528;2024-03-06T10:18:35;64.50;;;20.90;;
43160;SDS011;40968;52.342;5.528;2024-03-06T10:21:03;59.33;;;21.23;;
43160;SDS011;40968;52.342;5.528;2024-03-06T10:23:32;57.38;;;19.90;;
43160;SDS011;40968;52.342;5.528;2024-03-06T10:25:59;53.75;;;17.52;;
43160;SDS011;40968;52.342;5.528;2024-03-06T10:28:26;55.65;;;17.98;;
43160;SDS011;40968;52.342;5.528;2024-03-06T10:31:02;49.08;;;18.38;;
43160;SDS011;40968;52.342;5.528;2024-03-06T10:33:31;57.38;;;19.27;;
43160;SDS011;40968;52.342;5.528;2024-03-06T10:35:57;61.55;;;19.92;;
43160;SDS011;40968;52.342;5.528;2024-03-06T10:38:24;60.20;;;18.63;;
43160;SDS011;40968;52.342;5.528;2024-03-06T10:40:55;62.28;;;18.45;;
43160;SDS011;40968;52.342;5.528;2024-03-06T10:43:23;59.75;;;19.52;;
43160;SDS011;40968;52.342;5.528;2024-03-06T10:45:51;64.65;;;19.38;;
43160;SDS011;40968;52.342;5.528;2024-03-06T10:48:21;55.05;;;18.55;;
43160;SDS011;40968;52.342;5.528;2024-03-06T10:50:48;61.85;;;19.45;;
43160;SDS011;40968;52.342;5.528;2024-03-06T10:53:16;63.45;;;20.15;;
43160;SDS011;40968;52.342;5.528;2024-03-06T10:55:44;56.40;;;19.38;;
43160;SDS011;40968;52.342;5.528;2024-03-06T10:58:13;58.47;;;19.55;;
43160;SDS011;40968;52.342;5.528;2024-03-06T11:00:40;59.40;;;19.45;;
43160;SDS011;40968;52.342;5.528;2024-03-06T11:03:08;53.75;;;18.85;;
43160;SDS011;40968;52.342;5.528;2024-03-06T11:05:37;54.22;;;19.17;;
43160;SDS011;40968;52.342;5.528;2024-03-06T11:08:05;54.30;;;18.17;;
43160;SDS011;40968;52.342;5.528;2024-03-06T11:10:32;51.20;;;18.40;;
43160;SDS011;40968;52.342;5.528;2024-03-06T11:13:00;58.70;;;18.52;;
43160;SDS011;40968;52.342;5.528;2024-03-06T11:15:29;51.50;;;17.92;;
43160;SDS011;40968;52.342;5.528;2024-03-06T11:17:56;50.50;;;18.92;;
43160;SDS011;40968;52.342;5.528;2024-03-06T11:20:22;57.05;;;19.48;;
43160;SDS011;40968;52.342;5.528;2024-03-06T11:23:07;58.20;;;18.15;;
43160;SDS011;40968;52.342;5.528;2024-03-06T11:25:55;66.25;;;18.73;;
43160;SDS011;40968;52.342;5.528;2024-03-06T11:28:25;51.53;;;18.60;;
43160;SDS011;40968;52.342;5.528;2024-03-06T11:30:57;59.55;;;18.48;;
43160;SDS011;40968;52.342;5.528;2024-03-06T11:33:28;50.63;;;18.38;;
43160;SDS011;40968;52.342;5.528;2024-03-06T11:36:16;59.35;;;19.58;;
43160;SDS011;40968;52.342;5.528;2024-03-06T11:38:47;51.40;;;17.45;;
43160;SDS011;40968;52.342;5.528;2024-03-06T11:41:18;50.28;;;17.88;;
43160;SDS011;40968;52.342;5.528;2024-03-06T11:43:45;49.90;;;18.77;;
43160;SDS011;40968;52.342;5.528;2024-03-06T11:46:16;60.47;;;20.27;;
43160;SDS011;40968;52.342;5.528;2024-03-06T11:48:43;54.67;;;19.58;;
43160;SDS011;40968;52.342;5.528;2024-03-06T11:51:18;60.60;;;18.98;;
43160;SDS011;40968;52.342;5.528;2024-03-06T11:53:44;45.72;;;18.02;;
43160;SDS011;40968;52.342;5.528;2024-03-06T11:56:11;48.65;;;18.55;;
43160;SDS011;40968;52.342;5.528;2024-03-06T11:58:38;50.30;;;17.83;;
43160;SDS011;40968;52.342;5.528;2024-03-06T12:01:04;55.35;;;20.45;;
43160;SDS011;40968;52.342;5.528;2024-03-06T12:03:32;54.15;;;18.98;;
43160;SDS011;40968;52.342;5.528;2024-03-06T12:05:59;48.95;;;18.25;;
43160;SDS011;40968;52.342;5.528;2024-03-06T12:08:27;54.35;;;17.65;;
43160;SDS011;40968;52.342;5.528;2024-03-06T12:10:53;55.60;;;19.98;;
43160;SDS011;40968;52.342;5.528;2024-03-06T12:13:23;54.38;;;18.80;;
43160;SDS011;40968;52.342;5.528;2024-03-06T12:15:50;59.85;;;19.85;;
43160;SDS011;40968;52.342;5.528;2024-03-06T12:18:16;48.30;;;17.02;;
43160;SDS011;40968;52.342;5.528;2024-03-06T12:20:45;54.22;;;19.00;;
43160;SDS011;40968;52.342;5.528;2024-03-06T12:23:18;60.30;;;19.60;;
43160;SDS011;40968;52.342;5.528;2024-03-06T12:25:48;51.63;;;17.00;;
43160;SDS011;40968;52.342;5.528;2024-03-06T12:28:15;50.42;;;18.25;;
43160;SDS011;40968;52.342;5.528;2024-03-06T12:30:43;52.47;;;17.48;;
43160;SDS011;40968;52.342;5.528;2024-03-06T12:33:09;53.10;;;18.52;;
43160;SDS011;40968;52.342;5.528;2024-03-06T12:35:39;58.58;;;20.10;;
43160;SDS011;40968;52.342;5.528;2024-03-06T12:38:12;53.85;;;18.35;;
43160;SDS011;40968;52.342;5.528;2024-03-06T12:40:39;50.83;;;19.48;;
43160;SDS011;40968;52.342;5.528;2024-03-06T12:43:06;53.55;;;18.70;;
43160;SDS011;40968;52.342;5.528;2024-03-06T12:45:33;54.70;;;19.17;;
43160;SDS011;40968;52.342;5.528;2024-03-06T12:48:00;55.53;;;18.83;;
43160;SDS011;40968;52.342;5.528;2024-03-06T12:50:29;70.72;;;20.15;;
43160;SDS011;40968;52.342;5.528;2024-03-06T12:52:56;55.72;;;19.55;;
43160;SDS011;40968;52.342;5.528;2024-03-06T12:55:24;56.83;;;18.20;;
43160;SDS011;40968;52.342;5.528;2024-03-06T12:57:55;58.22;;;19.50;;
43160;SDS011;40968;52.342;5.528;2024-03-06T13:00:22;61.47;;;19.30;;
43160;SDS011;40968;52.342;5.528;2024-03-06T13:02:49;61.22;;;19.35;;
43160;SDS011;40968;52.342;5.528;2024-03-06T13:05:18;57.95;;;20.08;;
43160;SDS011;40968;52.342;5.528;2024-03-06T13:07:45;61.10;;;19.92;;
43160;SDS011;40968;52.342;5.528;2024-03-06T13:10:12;57.22;;;19.05;;
43160;SDS011;40968;52.342;5.528;2024-03-06T13:12:40;62.95;;;18.88;;
43160;SDS011;40968;52.342;5.528;2024-03-06T13:15:08;56.38;;;18.60;;
43160;SDS011;40968;52.342;5.528;2024-03-06T13:17:35;52.50;;;18.52;;
43160;SDS011;40968;52.342;5.528;2024-03-06T13:20:01;58.17;;;17.52;;
43160;SDS011;40968;52.342;5.528;2024-03-06T13:22:28;58.10;;;17.67;;
43160;SDS011;40968;52.342;5.528;2024-03-06T13:24:55;51.95;;;18.48;;
43160;SDS011;40968;52.342;5.528;2024-03-06T13:27:22;52.53;;;18.80;;
43160;SDS011;40968;52.342;5.528;2024-03-06T13:29:50;61.10;;;19.92;;
43160;SDS011;40968;52.342;5.528;2024-03-06T13:32:17;55.60;;;18.60;;
43160;SDS011;40968;52.342;5.528;2024-03-06T13:34:43;55.25;;;18.38;;
43160;SDS011;40968;52.342;5.528;2024-03-06T13:37:10;52.22;;;18.67;;
43160;SDS011;40968;52.342;5.528;2024-03-06T13:39:36;52.22;;;17.73;;
43160;SDS011;40968;52.342;5.528;2024-03-06T13:42:04;55.67;;;18.00;;
43160;SDS011;40968;52.342;5.528;2024-03-06T13:44:33;46.35;;;14.93;;
43160;SDS011;40968;52.342;5.528;2024-03-06T13:47:01;47.80;;;16.05;;
43160;SDS011;40968;52.342;5.528;2024-03-06T13:49:34;44.85;;;16.55;;
43160;SDS011;40968;52.342;5.528;2024-03-06T13:52:05;50.75;;;16.45;;
43160;SDS011;40968;52.342;5.528;2024-03-06T13:54:34;52.05;;;16.55;;
43160;SDS011;40968;52.342;5.528;2024-03-06T13:57:01;49.83;;;16.92;;
43160;SDS011;40968;52.342;5.528;2024-03-06T13:59:28;49.35;;;16.85;;
43160;SDS011;40968;52.342;5.528;2024-03-06T14:01:55;50.05;;;16.27;;
43160;SDS011;40968;52.342;5.528;2024-03-06T14:04:23;49.85;;;17.98;;
43160;SDS011;40968;52.342;5.528;2024-03-06T14:06:50;56.17;;;17.08;;
43160;SDS011;40968;52.342;5.528;2024-03-06T14:09:16;42.58;;;16.20;;
43160;SDS011;40968;52.342;5.528;2024-03-06T14:11:43;41.28;;;15.65;;
43160;SDS011;40968;52.342;5.528;2024-03-06T14:14:10;46.03;;;16.42;;
43160;SDS011;40968;52.342;5.528;2024-03-06T14:16:38;46.42;;;15.82;;
43160;SDS011;40968;52.342;5.528;2024-03-06T14:19:07;48.13;;;16.40;;
43160;SDS011;40968;52.342;5.528;2024-03-06T14:21:35;50.67;;;15.80;;